Lake Park, FL (33403)

3:28 PM EST on December 26, 2014 (GMT -0500)
Rybovich Boat Company | Change Station
CLOSE
Current Station
Personal Weather Station
Location: West Palm Beach, FL
Elevation: 10 ft
Nearby Weather Stations

Elev 10 ft 26.75 °N, 80.05 °W | Updated 2 seconds ago

Overcast
Overcast
72.4 °F
Feels Like 72.4 °F
N
2.6
Wind Variable Wind from ENE
Gusts 8.0 mph

Today
High -- | Low -- °F
--% Chance of Precip.
Yesterday
High -- | Low -- °F
Precip. -- in
7:07 AM 5:34 PM
Waxing Crescent, 29% visible
Pressure 30.13 in
Visibility 7.0 miles
Clouds Overcast 1700 ft
Dew Point 70 °F
Humidity 94%
Rainfall 0.00 in
Snow Depth Not available.
UV 1 out of 12
Pollen 4.50 out of 12
Air Quality Not available.
Flu Activity Not available.
METAR KPBI 261953Z 09009KT 7SM OVC017 24/21 A3013 RMK AO2 SLP202 T02390211

More Conditions Fewer Conditions

Pressure 30.13 in
Visibility 7.0 miles
Clouds Overcast 1700 ft
Dew Point 70 °F
Humidity 94%
Rainfall 0.00 in
Snow Depth Not available.
UV 1 out of 12
Pollen 4.50 out of 12
Air Quality Not available.
Flu Activity Not available.
METAR KPBI 261953Z 09009KT 7SM OVC017 24/21 A3013 RMK AO2 SLP202 T02390211

More Conditions Fewer Conditions

10-Day Weather Forecast

Almanac

Astronomy

Dec. 26, 2014 Rise Set
Actual Time
Civil Twilight
Nautical Twilight
Astronomical Twilight
Moon
Length of Visible Light
Length of Day
Tomorrow will be .
, % of the Moon is Illuminated

Today's Extremes

State Highs State Lows

Community

WunderPhotos

Upload Photos

1,780,693 photos uploaded!

WunderBlogs® & News

Nearby

Air Quality

  Air Quality AQ Index Pollutant
Not available.

Snow Depth

Station Depth Elevation

Earthquake Activity

City Distance Mag. Time & Date
Minimum magnitude displayed is 2.5.

Coastal Water Temperatures

Place Temperature

Nearby Weather Stations